sensor_id;sensor_type;location;lat;lon;timestamp;temperature;humidity
37658;DHT22;23500;53.268;8.308;2023-02-15T00:01:19;14.90;65.00
37658;DHT22;23500;53.268;8.308;2023-02-15T00:03:44;14.80;65.00
37658;DHT22;23500;53.268;8.308;2023-02-15T00:06:10;14.80;65.20
37658;DHT22;23500;53.268;8.308;2023-02-15T00:08:36;14.80;65.20
37658;DHT22;23500;53.268;8.308;2023-02-15T00:11:09;14.80;65.10
37658;DHT22;23500;53.268;8.308;2023-02-15T00:13:36;14.80;65.80
37658;DHT22;23500;53.268;8.308;2023-02-15T00:16:05;14.80;65.50
37658;DHT22;23500;53.268;8.308;2023-02-15T00:18:31;14.80;65.50
37658;DHT22;23500;53.268;8.308;2023-02-15T00:20:58;14.70;65.20
37658;DHT22;23500;53.268;8.308;2023-02-15T00:23:26;14.70;65.60
37658;DHT22;23500;53.268;8.308;2023-02-15T00:25:51;14.70;65.60
37658;DHT22;23500;53.268;8.308;2023-02-15T00:28:17;14.70;65.40
37658;DHT22;23500;53.268;8.308;2023-02-15T00:30:43;14.70;65.70
37658;DHT22;23500;53.268;8.308;2023-02-15T00:33:08;14.70;65.60
37658;DHT22;23500;53.268;8.308;2023-02-15T00:35:34;14.60;65.20
37658;DHT22;23500;53.268;8.308;2023-02-15T00:37:59;14.60;65.40
37658;DHT22;23500;53.268;8.308;2023-02-15T00:40:25;14.60;65.70
37658;DHT22;23500;53.268;8.308;2023-02-15T00:42:51;14.60;66.10
37658;DHT22;23500;53.268;8.308;2023-02-15T00:45:16;14.60;65.70
37658;DHT22;23500;53.268;8.308;2023-02-15T00:47:42;14.60;66.00
37658;DHT22;23500;53.268;8.308;2023-02-15T00:50:08;14.60;66.30
37658;DHT22;23500;53.268;8.308;2023-02-15T00:52:33;14.60;66.00
37658;DHT22;23500;53.268;8.308;2023-02-15T00:54:59;14.50;65.90
37658;DHT22;23500;53.268;8.308;2023-02-15T00:57:25;14.50;66.00
37658;DHT22;23500;53.268;8.308;2023-02-15T00:59:50;14.50;65.70
37658;DHT22;23500;53.268;8.308;2023-02-15T01:02:16;14.50;66.20
37658;DHT22;23500;53.268;8.308;2023-02-15T01:04:42;14.50;66.80
37658;DHT22;23500;53.268;8.308;2023-02-15T01:07:07;14.50;66.70
37658;DHT22;23500;53.268;8.308;2023-02-15T01:09:33;14.50;66.00
37658;DHT22;23500;53.268;8.308;2023-02-15T01:11:59;14.50;65.50
37658;DHT22;23500;53.268;8.308;2023-02-15T01:14:24;14.50;65.70
37658;DHT22;23500;53.268;8.308;2023-02-15T01:16:50;14.60;66.00
37658;DHT22;23500;53.268;8.308;2023-02-15T01:19:16;14.80;65.70
37658;DHT22;23500;53.268;8.308;2023-02-15T01:21:41;14.90;65.60
37658;DHT22;23500;53.268;8.308;2023-02-15T01:24:14;15.10;66.20
37658;DHT22;23500;53.268;8.308;2023-02-15T01:26:40;15.90;66.20
37658;DHT22;23500;53.268;8.308;2023-02-15T01:29:06;17.30;62.20
37658;DHT22;23500;53.268;8.308;2023-02-15T01:31:31;18.40;58.80
37658;DHT22;23500;53.268;8.308;2023-02-15T01:33:57;19.50;56.20
37658;DHT22;23500;53.268;8.308;2023-02-15T01:36:23;20.40;54.00
37658;DHT22;23500;53.268;8.308;2023-02-15T01:38:48;21.10;52.20
37658;DHT22;23500;53.268;8.308;2023-02-15T01:41:14;21.80;50.60
37658;DHT22;23500;53.268;8.308;2023-02-15T01:44:00;22.20;49.90
37658;DHT22;23500;53.268;8.308;2023-02-15T01:46:40;22.30;49.40
37658;DHT22;23500;53.268;8.308;2023-02-15T01:49:14;22.30;49.10
37658;DHT22;23500;53.268;8.308;2023-02-15T01:51:42;22.30;49.20
37658;DHT22;23500;53.268;8.308;2023-02-15T01:54:15;22.20;49.50
37658;DHT22;23500;53.268;8.308;2023-02-15T01:56:42;21.90;49.80
37658;DHT22;23500;53.268;8.308;2023-02-15T01:59:13;21.70;50.40
37658;DHT22;23500;53.268;8.308;2023-02-15T02:01:40;21.40;51.10
37658;DHT22;23500;53.268;8.308;2023-02-15T02:04:29;21.00;51.50
37658;DHT22;23500;53.268;8.308;2023-02-15T02:06:57;20.60;52.40
37658;DHT22;23500;53.268;8.308;2023-02-15T02:09:24;20.30;53.30
37658;DHT22;23500;53.268;8.308;2023-02-15T02:11:50;19.90;53.40
37658;DHT22;23500;53.268;8.308;2023-02-15T02:14:16;19.60;53.80
37658;DHT22;23500;53.268;8.308;2023-02-15T02:22:49;18.80;53.20
37658;DHT22;23500;53.268;8.308;2023-02-15T02:33:41;17.70;54.90
37658;DHT22;23500;53.268;8.308;2023-02-15T02:36:35;17.40;55.90
37658;DHT22;23500;53.268;8.308;2023-02-15T02:42:27;17.00;57.10
37658;DHT22;23500;53.268;8.308;2023-02-15T02:48:08;16.70;57.30
37658;DHT22;23500;53.268;8.308;2023-02-15T02:50:38;16.60;58.40
37658;DHT22;23500;53.268;8.308;2023-02-15T02:53:04;16.60;58.20
37658;DHT22;23500;53.268;8.308;2023-02-15T02:58:13;16.60;59.40
37658;DHT22;23500;53.268;8.308;2023-02-15T03:05:54;16.60;59.20
37658;DHT22;23500;53.268;8.308;2023-02-15T03:08:25;16.60;59.00
37658;DHT22;23500;53.268;8.308;2023-02-15T03:10:55;16.60;58.70
37658;DHT22;23500;53.268;8.308;2023-02-15T03:13:22;16.60;58.60
37658;DHT22;23500;53.268;8.308;2023-02-15T03:15:49;16.60;58.40
37658;DHT22;23500;53.268;8.308;2023-02-15T03:18:44;16.60;58.50
37658;DHT22;23500;53.268;8.308;2023-02-15T03:21:24;16.60;58.70
37658;DHT22;23500;53.268;8.308;2023-02-15T03:23:58;16.60;58.40
37658;DHT22;23500;53.268;8.308;2023-02-15T03:26:26;16.50;58.30
37658;DHT22;23500;53.268;8.308;2023-02-15T03:28:55;16.50;58.60
37658;DHT22;23500;53.268;8.308;2023-02-15T03:31:26;16.40;58.70
37658;DHT22;23500;53.268;8.308;2023-02-15T03:34:03;16.40;58.80
37658;DHT22;23500;53.268;8.308;2023-02-15T03:36:35;16.30;59.20
37658;DHT22;23500;53.268;8.308;2023-02-15T03:42:17;16.20;59.90
37658;DHT22;23500;53.268;8.308;2023-02-15T03:45:05;16.20;59.60
37658;DHT22;23500;53.268;8.308;2023-02-15T03:47:39;16.10;60.10
37658;DHT22;23500;53.268;8.308;2023-02-15T03:50:17;16.10;59.70
37658;DHT22;23500;53.268;8.308;2023-02-15T03:53:05;16.00;59.80
37658;DHT22;23500;53.268;8.308;2023-02-15T03:55:32;16.00;59.30
37658;DHT22;23500;53.268;8.308;2023-02-15T03:57:58;16.00;59.60
37658;DHT22;23500;53.268;8.308;2023-02-15T04:00:49;16.00;59.60
37658;DHT22;23500;53.268;8.308;2023-02-15T04:04:01;16.10;59.70
37658;DHT22;23500;53.268;8.308;2023-02-15T04:06:28;16.10;59.30
37658;DHT22;23500;53.268;8.308;2023-02-15T04:08:54;16.10;59.30
37658;DHT22;23500;53.268;8.308;2023-02-15T04:11:38;16.10;59.30
37658;DHT22;23500;53.268;8.308;2023-02-15T04:14:04;16.10;59.30
37658;DHT22;23500;53.268;8.308;2023-02-15T04:16:49;16.10;59.30
37658;DHT22;23500;53.268;8.308;2023-02-15T04:19:15;16.10;59.20
37658;DHT22;23500;53.268;8.308;2023-02-15T04:21:59;16.10;59.00
37658;DHT22;23500;53.268;8.308;2023-02-15T04:24:43;16.10;59.10
37658;DHT22;23500;53.268;8.308;2023-02-15T04:27:27;16.10;59.00
37658;DHT22;23500;53.268;8.308;2023-02-15T04:29:53;16.10;59.30
37658;DHT22;23500;53.268;8.308;2023-02-15T04:32:18;16.10;59.30
37658;DHT22;23500;53.268;8.308;2023-02-15T04:34:44;16.00;59.70
37658;DHT22;23500;53.268;8.308;2023-02-15T04:37:10;16.00;60.00
37658;DHT22;23500;53.268;8.308;2023-02-15T04:39:35;16.00;60.20
37658;DHT22;23500;53.268;8.308;2023-02-15T04:42:01;15.90;60.20
37658;DHT22;23500;53.268;8.308;2023-02-15T04:44:26;15.90;60.00
37658;DHT22;23500;53.268;8.308;2023-02-15T04:46:52;15.90;60.10
37658;DHT22;23500;53.268;8.308;2023-02-15T04:49:18;15.80;60.20
37658;DHT22;23500;53.268;8.308;2023-02-15T04:51:43;15.80;59.80
37658;DHT22;23500;53.268;8.308;2023-02-15T04:54:09;15.80;59.50
37658;DHT22;23500;53.268;8.308;2023-02-15T04:56:35;15.90;59.10
37658;DHT22;23500;53.268;8.308;2023-02-15T04:59:03;15.90;59.20
37658;DHT22;23500;53.268;8.308;2023-02-15T05:01:28;15.90;58.90
37658;DHT22;23500;53.268;8.308;2023-02-15T05:03:54;15.90;59.00
37658;DHT22;23500;53.268;8.308;2023-02-15T05:06:20;15.90;59.00
37658;DHT22;23500;53.268;8.308;2023-02-15T05:08:46;15.90;59.20
37658;DHT22;23500;53.268;8.308;2023-02-15T05:11:11;15.90;59.10
37658;DHT22;23500;53.268;8.308;2023-02-15T05:13:37;15.90;59.00
37658;DHT22;23500;53.268;8.308;2023-02-15T05:16:03;15.90;58.90
37658;DHT22;23500;53.268;8.308;2023-02-15T05:18:29;15.90;59.00
37658;DHT22;23500;53.268;8.308;2023-02-15T05:20:54;15.90;59.30
37658;DHT22;23500;53.268;8.308;2023-02-15T05:23:20;15.80;59.30
37658;DHT22;23500;53.268;8.308;2023-02-15T05:25:50;15.80;59.40
37658;DHT22;23500;53.268;8.308;2023-02-15T05:28:36;15.80;59.60
37658;DHT22;23500;53.268;8.308;2023-02-15T05:31:19;15.80;59.50
37658;DHT22;23500;53.268;8.308;2023-02-15T05:33:44;15.80;60.20
37658;DHT22;23500;53.268;8.308;2023-02-15T05:36:10;15.70;59.70
37658;DHT22;23500;53.268;8.308;2023-02-15T05:38:37;15.70;60.00
37658;DHT22;23500;53.268;8.308;2023-02-15T05:41:06;15.70;60.50
37658;DHT22;23500;53.268;8.308;2023-02-15T05:43:32;15.60;61.30
37658;DHT22;23500;53.268;8.308;2023-02-15T05:45:58;15.60;61.20
37658;DHT22;23500;53.268;8.308;2023-02-15T05:48:25;15.60;61.20
37658;DHT22;23500;53.268;8.308;2023-02-15T05:51:00;15.50;60.50
37658;DHT22;23500;53.268;8.308;2023-02-15T05:53:27;15.50;60.50
37658;DHT22;23500;53.268;8.308;2023-02-15T05:55:53;15.50;59.80
37658;DHT22;23500;53.268;8.308;2023-02-15T05:58:27;15.60;60.10
37658;DHT22;23500;53.268;8.308;2023-02-15T06:00:53;15.50;60.00
37658;DHT22;23500;53.268;8.308;2023-02-15T06:03:19;15.60;60.40
37658;DHT22;23500;53.268;8.308;2023-02-15T06:05:45;15.70;60.40
37658;DHT22;23500;53.268;8.308;2023-02-15T06:08:10;15.80;60.30
37658;DHT22;23500;53.268;8.308;2023-02-15T06:10:36;15.80;59.90
37658;DHT22;23500;53.268;8.308;2023-02-15T06:13:02;15.80;59.60
37658;DHT22;23500;53.268;8.308;2023-02-15T06:15:28;15.90;59.50
37658;DHT22;23500;53.268;8.308;2023-02-15T06:17:53;15.90;59.00
37658;DHT22;23500;53.268;8.308;2023-02-15T06:20:19;15.90;58.80
37658;DHT22;23500;53.268;8.308;2023-02-15T06:22:44;15.90;59.00
37658;DHT22;23500;53.268;8.308;2023-02-15T06:25:10;15.80;58.90
37658;DHT22;23500;53.268;8.308;2023-02-15T06:27:37;15.80;59.10
37658;DHT22;23500;53.268;8.308;2023-02-15T06:30:07;15.80;59.20
37658;DHT22;23500;53.268;8.308;2023-02-15T06:32:33;15.80;59.60
37658;DHT22;23500;53.268;8.308;2023-02-15T06:34:58;15.70;59.60
37658;DHT22;23500;53.268;8.308;2023-02-15T06:37:24;15.70;60.00
37658;DHT22;23500;53.268;8.308;2023-02-15T06:39:50;15.60;60.30
37658;DHT22;23500;53.268;8.308;2023-02-15T06:42:15;15.60;61.30
37658;DHT22;23500;53.268;8.308;2023-02-15T06:44:43;15.50;61.40
37658;DHT22;23500;53.268;8.308;2023-02-15T06:47:09;15.60;61.00
37658;DHT22;23500;53.268;8.308;2023-02-15T06:49:34;15.50;60.70
37658;DHT22;23500;53.268;8.308;2023-02-15T06:52:00;15.50;60.10
37658;DHT22;23500;53.268;8.308;2023-02-15T06:54:25;15.50;60.60
37658;DHT22;23500;53.268;8.308;2023-02-15T06:56:51;15.60;61.20
37658;DHT22;23500;53.268;8.308;2023-02-15T06:59:17;15.50;61.00
37658;DHT22;23500;53.268;8.308;2023-02-15T07:01:42;15.50;61.10
37658;DHT22;23500;53.268;8.308;2023-02-15T07:04:09;15.50;61.20
37658;DHT22;23500;53.268;8.308;2023-02-15T07:06:34;15.50;61.50
37658;DHT22;23500;53.268;8.308;2023-02-15T07:09:00;15.50;61.70
37658;DHT22;23500;53.268;8.308;2023-02-15T07:11:26;15.50;62.40
37658;DHT22;23500;53.268;8.308;2023-02-15T07:14:10;15.40;62.70
37658;DHT22;23500;53.268;8.308;2023-02-15T07:16:36;15.40;62.70
37658;DHT22;23500;53.268;8.308;2023-02-15T07:19:01;15.40;62.70
37658;DHT22;23500;53.268;8.308;2023-02-15T07:21:27;15.30;62.70
37658;DHT22;23500;53.268;8.308;2023-02-15T07:23:56;15.30;63.00
37658;DHT22;23500;53.268;8.308;2023-02-15T07:26:23;15.30;63.10
37658;DHT22;23500;53.268;8.308;2023-02-15T07:28:49;15.20;62.90
37658;DHT22;23500;53.268;8.308;2023-02-15T07:31:14;15.20;62.90
37658;DHT22;23500;53.268;8.308;2023-02-15T07:33:40;15.20;63.10
37658;DHT22;23500;53.268;8.308;2023-02-15T07:36:07;15.20;62.90
37658;DHT22;23500;53.268;8.308;2023-02-15T07:38:36;15.20;63.20
37658;DHT22;23500;53.268;8.308;2023-02-15T07:41:04;15.10;63.60
37658;DHT22;23500;53.268;8.308;2023-02-15T07:43:32;15.10;63.60
37658;DHT22;23500;53.268;8.308;2023-02-15T07:46:05;15.10;63.90
37658;DHT22;23500;53.268;8.308;2023-02-15T07:48:33;15.10;64.30
37658;DHT22;23500;53.268;8.308;2023-02-15T07:51:00;15.10;64.10
37658;DHT22;23500;53.268;8.308;2023-02-15T07:53:26;15.10;64.00
37658;DHT22;23500;53.268;8.308;2023-02-15T07:55:51;15.10;64.30
37658;DHT22;23500;53.268;8.308;2023-02-15T07:58:18;15.10;64.20
37658;DHT22;23500;53.268;8.308;2023-02-15T08:00:43;15.10;64.30
37658;DHT22;23500;53.268;8.308;2023-02-15T08:03:27;15.00;64.50
37658;DHT22;23500;53.268;8.308;2023-02-15T08:05:58;15.00;64.20
37658;DHT22;23500;53.268;8.308;2023-02-15T08:08:28;15.00;65.40
37658;DHT22;23500;53.268;8.308;2023-02-15T08:13:46;15.00;64.20
37658;DHT22;23500;53.268;8.308;2023-02-15T08:16:23;15.00;64.30
37658;DHT22;23500;53.268;8.308;2023-02-15T08:18:49;15.00;64.20
37658;DHT22;23500;53.268;8.308;2023-02-15T08:21:15;15.00;64.30
37658;DHT22;23500;53.268;8.308;2023-02-15T08:23:41;15.00;64.40
37658;DHT22;23500;53.268;8.308;2023-02-15T08:26:06;15.10;64.30
37658;DHT22;23500;53.268;8.308;2023-02-15T08:28:32;15.00;64.40
37658;DHT22;23500;53.268;8.308;2023-02-15T08:31:23;15.10;64.30
37658;DHT22;23500;53.268;8.308;2023-02-15T08:33:50;15.10;64.70
37658;DHT22;23500;53.268;8.308;2023-02-15T08:36:19;15.10;64.50
37658;DHT22;23500;53.268;8.308;2023-02-15T08:38:45;15.10;64.40
37658;DHT22;23500;53.268;8.308;2023-02-15T08:41:17;15.10;64.40
37658;DHT22;23500;53.268;8.308;2023-02-15T08:43:45;15.10;65.20
37658;DHT22;23500;53.268;8.308;2023-02-15T08:46:12;15.10;64.60
37658;DHT22;23500;53.268;8.308;2023-02-15T08:48:38;15.10;64.60
37658;DHT22;23500;53.268;8.308;2023-02-15T08:51:09;15.10;64.40
37658;DHT22;23500;53.268;8.308;2023-02-15T08:53:39;15.10;64.80
37658;DHT22;23500;53.268;8.308;2023-02-15T08:56:06;15.10;64.60
37658;DHT22;23500;53.268;8.308;2023-02-15T08:58:32;15.10;64.80
37658;DHT22;23500;53.268;8.308;2023-02-15T09:00:58;15.10;65.00
37658;DHT22;23500;53.268;8.308;2023-02-15T09:03:24;15.10;64.90
37658;DHT22;23500;53.268;8.308;2023-02-15T09:05:50;15.10;65.00
37658;DHT22;23500;53.268;8.308;2023-02-15T09:08:16;15.10;65.00
37658;DHT22;23500;53.268;8.308;2023-02-15T09:10:42;15.10;65.20
37658;DHT22;23500;53.268;8.308;2023-02-15T09:13:07;15.10;65.10
37658;DHT22;23500;53.268;8.308;2023-02-15T09:15:33;15.10;65.50
37658;DHT22;23500;53.268;8.308;2023-02-15T09:17:59;15.10;65.20
37658;DHT22;23500;53.268;8.308;2023-02-15T09:20:28;15.10;65.40
37658;DHT22;23500;53.268;8.308;2023-02-15T09:22:54;15.10;65.30
37658;DHT22;23500;53.268;8.308;2023-02-15T09:25:20;15.10;65.60
37658;DHT22;23500;53.268;8.308;2023-02-15T09:27:46;15.10;64.90
37658;DHT22;23500;53.268;8.308;2023-02-15T09:30:12;15.10;65.70
37658;DHT22;23500;53.268;8.308;2023-02-15T09:32:38;15.10;65.80
37658;DHT22;23500;53.268;8.308;2023-02-15T09:35:03;15.10;65.80
37658;DHT22;23500;53.268;8.308;2023-02-15T09:37:32;15.10;66.00
37658;DHT22;23500;53.268;8.308;2023-02-15T09:39:58;15.10;66.10
37658;DHT22;23500;53.268;8.308;2023-02-15T09:50:15;15.10;66.30
37658;DHT22;23500;53.268;8.308;2023-02-15T09:58:30;15.00;66.60
37658;DHT22;23500;53.268;8.308;2023-02-15T10:01:15;15.00;66.70
37658;DHT22;23500;53.268;8.308;2023-02-15T10:10:04;15.00;67.00
37658;DHT22;23500;53.268;8.308;2023-02-15T10:16:02;15.00;67.00
37658;DHT22;23500;53.268;8.308;2023-02-15T10:21:17;15.00;67.20
37658;DHT22;23500;53.268;8.308;2023-02-15T10:26:45;15.00;67.30
37658;DHT22;23500;53.268;8.308;2023-02-15T10:29:46;15.00;67.10
37658;DHT22;23500;53.268;8.308;2023-02-15T10:32:25;15.00;67.40
37658;DHT22;23500;53.268;8.308;2023-02-15T10:37:49;15.00;67.40
37658;DHT22;23500;53.268;8.308;2023-02-15T10:50:59;15.10;67.00
37658;DHT22;23500;53.268;8.308;2023-02-15T10:57:04;15.80;66.20
37658;DHT22;23500;53.268;8.308;2023-02-15T11:05:46;19.00;57.00
37658;DHT22;23500;53.268;8.308;2023-02-15T11:08:22;19.80;54.80
37658;DHT22;23500;53.268;8.308;2023-02-15T11:10:53;20.50;53.20
37658;DHT22;23500;53.268;8.308;2023-02-15T11:13:21;21.10;52.00
37658;DHT22;23500;53.268;8.308;2023-02-15T11:18:28;22.00;50.00
37658;DHT22;23500;53.268;8.308;2023-02-15T11:23:44;22.30;48.50
37658;DHT22;23500;53.268;8.308;2023-02-15T11:26:21;22.40;49.00
37658;DHT22;23500;53.268;8.308;2023-02-15T11:28:54;22.30;48.90
37658;DHT22;23500;53.268;8.308;2023-02-15T11:31:23;22.20;49.20
37658;DHT22;23500;53.268;8.308;2023-02-15T11:34:03;22.00;49.30
37658;DHT22;23500;53.268;8.308;2023-02-15T11:36:37;21.90;49.60
37658;DHT22;23500;53.268;8.308;2023-02-15T11:39:16;21.80;50.00
37658;DHT22;23500;53.268;8.308;2023-02-15T11:41:49;21.60;50.40
37658;DHT22;23500;53.268;8.308;2023-02-15T11:44:48;21.40;50.90
37658;DHT22;23500;53.268;8.308;2023-02-15T11:47:16;21.10;51.40
37658;DHT22;23500;53.268;8.308;2023-02-15T11:49:42;20.90;52.10
37658;DHT22;23500;53.268;8.308;2023-02-15T11:52:14;20.70;52.70
37658;DHT22;23500;53.268;8.308;2023-02-15T11:54:43;20.40;53.10
37658;DHT22;23500;53.268;8.308;2023-02-15T11:57:30;20.10;53.60
37658;DHT22;23500;53.268;8.308;2023-02-15T12:00:05;19.90;54.20
37658;DHT22;23500;53.268;8.308;2023-02-15T12:02:37;19.60;54.70
37658;DHT22;23500;53.268;8.308;2023-02-15T12:05:09;19.40;55.00
37658;DHT22;23500;53.268;8.308;2023-02-15T12:07:42;19.20;55.30
37658;DHT22;23500;53.268;8.308;2023-02-15T12:10:26;19.10;55.70
37658;DHT22;23500;53.268;8.308;2023-02-15T12:15:35;18.80;56.40
37658;DHT22;23500;53.268;8.308;2023-02-15T12:18:01;18.60;56.60
37658;DHT22;23500;53.268;8.308;2023-02-15T12:20:34;18.50;57.00
37658;DHT22;23500;53.268;8.308;2023-02-15T12:23:04;18.40;57.50
37658;DHT22;23500;53.268;8.308;2023-02-15T12:25:43;18.30;57.60
37658;DHT22;23500;53.268;8.308;2023-02-15T12:28:43;18.20;58.00
37658;DHT22;23500;53.268;8.308;2023-02-15T12:31:20;18.10;58.20
37658;DHT22;23500;53.268;8.308;2023-02-15T12:33:46;18.00;58.40
37658;DHT22;23500;53.268;8.308;2023-02-15T12:36:40;17.90;58.50
37658;DHT22;23500;53.268;8.308;2023-02-15T12:41:44;17.70;59.20
37658;DHT22;23500;53.268;8.308;2023-02-15T12:44:18;17.70;59.50
37658;DHT22;23500;53.268;8.308;2023-02-15T12:49:39;17.70;60.30
37658;DHT22;23500;53.268;8.308;2023-02-15T12:54:43;19.90;54.90
37658;DHT22;23500;53.268;8.308;2023-02-15T12:57:28;21.10;52.30
37658;DHT22;23500;53.268;8.308;2023-02-15T13:00:00;22.10;50.00
37658;DHT22;23500;53.268;8.308;2023-02-15T13:07:54;23.20;47.30
37658;DHT22;23500;53.268;8.308;2023-02-15T13:10:29;23.40;47.20
37658;DHT22;23500;53.268;8.308;2023-02-15T13:12:56;23.40;47.60
37658;DHT22;23500;53.268;8.308;2023-02-15T13:15:41;23.30;47.20
37658;DHT22;23500;53.268;8.308;2023-02-15T13:18:17;23.10;47.60
37658;DHT22;23500;53.268;8.308;2023-02-15T13:20:46;22.80;48.10
37658;DHT22;23500;53.268;8.308;2023-02-15T13:25:48;22.30;49.50
37658;DHT22;23500;53.268;8.308;2023-02-15T13:28:18;22.00;50.10
37658;DHT22;23500;53.268;8.308;2023-02-15T13:30:47;21.70;50.70
37658;DHT22;23500;53.268;8.308;2023-02-15T13:33:17;21.40;51.40
37658;DHT22;23500;53.268;8.308;2023-02-15T13:36:05;21.10;51.90
37658;DHT22;23500;53.268;8.308;2023-02-15T13:39:07;20.80;52.50
37658;DHT22;23500;53.268;8.308;2023-02-15T13:47:11;20.20;53.70
37658;DHT22;23500;53.268;8.308;2023-02-15T13:52:28;19.80;54.70
37658;DHT22;23500;53.268;8.308;2023-02-15T14:08:52;19.30;56.30
37658;DHT22;23500;53.268;8.308;2023-02-15T14:11:24;19.50;55.80
37658;DHT22;23500;53.268;8.308;2023-02-15T14:19:52;20.20;54.30
37658;DHT22;23500;53.268;8.308;2023-02-15T14:25:15;20.50;53.80
37658;DHT22;23500;53.268;8.308;2023-02-15T14:28:16;20.50;53.60
37658;DHT22;23500;53.268;8.308;2023-02-15T14:30:49;20.50;53.60
37658;DHT22;23500;53.268;8.308;2023-02-15T14:33:35;20.40;53.70
37658;DHT22;23500;53.268;8.308;2023-02-15T14:36:04;20.40;53.80
37658;DHT22;23500;53.268;8.308;2023-02-15T14:38:54;20.30;54.00
37658;DHT22;23500;53.268;8.308;2023-02-15T14:41:30;20.20;54.30
37658;DHT22;23500;53.268;8.308;2023-02-15T14:44:30;20.10;54.60
37658;DHT22;23500;53.268;8.308;2023-02-15T14:47:10;19.90;54.80
37658;DHT22;23500;53.268;8.308;2023-02-15T14:49:40;19.80;55.00
37658;DHT22;23500;53.268;8.308;2023-02-15T14:52:10;19.70;55.40
37658;DHT22;23500;53.268;8.308;2023-02-15T15:02:39;19.40;56.10
37658;DHT22;23500;53.268;8.308;2023-02-15T15:07:44;19.40;56.20
37658;DHT22;23500;53.268;8.308;2023-02-15T15:12:58;19.40;56.10
37658;DHT22;23500;53.268;8.308;2023-02-15T15:15:46;19.40;56.10
37658;DHT22;23500;53.268;8.308;2023-02-15T15:18:46;19.50;56.00
37658;DHT22;23500;53.268;8.308;2023-02-15T15:49:23;19.40;55.80
37658;DHT22;23500;53.268;8.308;2023-02-15T15:51:48;19.40;56.00
37658;DHT22;23500;53.268;8.308;2023-02-15T15:54:17;19.30;56.40
37658;DHT22;23500;53.268;8.308;2023-02-15T15:56:48;19.30;56.30
37658;DHT22;23500;53.268;8.308;2023-02-15T15:59:25;19.20;56.40
37658;DHT22;23500;53.268;8.308;2023-02-15T16:01:51;19.20;56.70
37658;DHT22;23500;53.268;8.308;2023-02-15T16:04:30;19.10;56.80
37658;DHT22;23500;53.268;8.308;2023-02-15T16:06:57;19.10;56.90
37658;DHT22;23500;53.268;8.308;2023-02-15T16:09:26;19.10;56.90
37658;DHT22;23500;53.268;8.308;2023-02-15T16:11:54;19.10;56.90
37658;DHT22;23500;53.268;8.308;2023-02-15T16:14:34;19.10;56.90
37658;DHT22;23500;53.268;8.308;2023-02-15T16:17:02;19.20;56.70
37658;DHT22;23500;53.268;8.308;2023-02-15T16:19:40;19.20;56.70
37658;DHT22;23500;53.268;8.308;2023-02-15T16:22:24;19.20;56.80
37658;DHT22;23500;53.268;8.308;2023-02-15T16:25:03;19.20;56.60
37658;DHT22;23500;53.268;8.308;2023-02-15T16:27:43;19.10;56.70
37658;DHT22;23500;53.268;8.308;2023-02-15T16:30:36;19.10;56.80
37658;DHT22;23500;53.268;8.308;2023-02-15T16:35:34;19.00;55.80
37658;DHT22;23500;53.268;8.308;2023-02-15T16:38:01;18.90;55.90
37658;DHT22;23500;53.268;8.308;2023-02-15T16:40:40;18.80;56.20
37658;DHT22;23500;53.268;8.308;2023-02-15T16:43:13;18.70;56.20
37658;DHT22;23500;53.268;8.308;2023-02-15T16:45:40;18.70;56.90
37658;DHT22;23500;53.268;8.308;2023-02-15T16:48:12;18.60;57.30
37658;DHT22;23500;53.268;8.308;2023-02-15T16:50:40;18.60;57.60
37658;DHT22;23500;53.268;8.308;2023-02-15T16:53:18;18.60;57.70
37658;DHT22;23500;53.268;8.308;2023-02-15T16:55:49;18.60;57.70
37658;DHT22;23500;53.268;8.308;2023-02-15T16:58:17;18.60;57.80
37658;DHT22;23500;53.268;8.308;2023-02-15T17:00:44;18.60;58.20
37658;DHT22;23500;53.268;8.308;2023-02-15T17:08:06;18.80;57.60
37658;DHT22;23500;53.268;8.308;2023-02-15T17:10:40;18.80;57.40
37658;DHT22;23500;53.268;8.308;2023-02-15T17:13:15;18.80;57.50
37658;DHT22;23500;53.268;8.308;2023-02-15T17:18:24;18.90;57.10
37658;DHT22;23500;53.268;8.308;2023-02-15T17:20:54;18.90;57.00
37658;DHT22;23500;53.268;8.308;2023-02-15T17:23:33;19.00;56.90
37658;DHT22;23500;53.268;8.308;2023-02-15T17:26:10;18.90;56.40
37658;DHT22;23500;53.268;8.308;2023-02-15T17:28:36;18.80;56.40
37658;DHT22;23500;53.268;8.308;2023-02-15T17:31:06;18.80;56.10
37658;DHT22;23500;53.268;8.308;2023-02-15T17:38:32;18.60;56.30
37658;DHT22;23500;53.268;8.308;2023-02-15T17:40:58;18.60;56.00
37658;DHT22;23500;53.268;8.308;2023-02-15T17:43:26;18.50;56.70
37658;DHT22;23500;53.268;8.308;2023-02-15T17:45:52;18.50;57.00
37658;DHT22;23500;53.268;8.308;2023-02-15T17:48:32;18.50;57.10
37658;DHT22;23500;53.268;8.308;2023-02-15T17:51:00;18.50;57.10
37658;DHT22;23500;53.268;8.308;2023-02-15T17:53:27;18.40;56.90
37658;DHT22;23500;53.268;8.308;2023-02-15T17:55:52;18.40;57.70
37658;DHT22;23500;53.268;8.308;2023-02-15T17:58:19;18.50;57.70
37658;DHT22;23500;53.268;8.308;2023-02-15T18:00:55;18.50;57.70
37658;DHT22;23500;53.268;8.308;2023-02-15T18:03:44;18.50;56.90
37658;DHT22;23500;53.268;8.308;2023-02-15T18:06:29;18.40;56.30
37658;DHT22;23500;53.268;8.308;2023-02-15T18:09:15;18.40;56.70
37658;DHT22;23500;53.268;8.308;2023-02-15T18:12:00;18.40;56.10
37658;DHT22;23500;53.268;8.308;2023-02-15T18:14:26;18.30;56.60
37658;DHT22;23500;53.268;8.308;2023-02-15T18:16:52;18.30;57.30
37658;DHT22;23500;53.268;8.308;2023-02-15T18:19:21;18.40;58.10
37658;DHT22;23500;53.268;8.308;2023-02-15T18:21:48;18.50;58.10
37658;DHT22;23500;53.268;8.308;2023-02-15T18:24:19;18.60;57.80
37658;DHT22;23500;53.268;8.308;2023-02-15T18:26:46;18.80;57.40
37658;DHT22;23500;53.268;8.308;2023-02-15T18:29:12;19.00;56.90
37658;DHT22;23500;53.268;8.308;2023-02-15T18:31:38;19.10;56.70
37658;DHT22;23500;53.268;8.308;2023-02-15T18:34:05;19.10;56.50
37658;DHT22;23500;53.268;8.308;2023-02-15T18:36:43;19.20;56.40
37658;DHT22;23500;53.268;8.308;2023-02-15T18:41:56;19.10;56.30
37658;DHT22;23500;53.268;8.308;2023-02-15T18:44:22;19.10;56.20
37658;DHT22;23500;53.268;8.308;2023-02-15T18:46:48;19.00;56.00
37658;DHT22;23500;53.268;8.308;2023-02-15T18:49:13;18.90;55.40
37658;DHT22;23500;53.268;8.308;2023-02-15T18:51:39;18.90;55.30
37658;DHT22;23500;53.268;8.308;2023-02-15T18:54:16;18.80;55.70
37658;DHT22;23500;53.268;8.308;2023-02-15T18:56:42;18.70;55.60
37658;DHT22;23500;53.268;8.308;2023-02-15T18:59:14;18.70;55.50
37658;DHT22;23500;53.268;8.308;2023-02-15T19:01:41;18.60;56.10
37658;DHT22;23500;53.268;8.308;2023-02-15T19:04:07;18.50;55.80
37658;DHT22;23500;53.268;8.308;2023-02-15T19:06:33;18.50;56.10
37658;DHT22;23500;53.268;8.308;2023-02-15T19:08:59;18.40;56.20
37658;DHT22;23500;53.268;8.308;2023-02-15T19:11:26;18.40;57.10
37658;DHT22;23500;53.268;8.308;2023-02-15T19:13:52;18.40;56.70